Portada
METAR-TAF:

METAR-TAF

Aeroports :

Phillip Goldston

Belize City, Belize

latitud: 17-32N, longitud: 088-18W, altitud: 5 m

Observació

L'informe es va fer fa 23 minuts, a les 12:00 UTC
Vent 6 kt del Est
Temperatura 27°C
Humitat 89%
Pressió 1015 hPa
Visibilitat 10 km o més
Núvols disperses a una alçada de 2300 ft

METAR: MZBZ 051200Z 10006KT 9999 SCT023 27/25 A2997 Q1015 NOSIG

Hora: 06:23 (12:23 UTC)

Pronòstic

L'informe es va fer fa 1 hora i 23 minuts, a les 11:00 UTC
Pronòstic vàlid del 05 a les 12 UTC al 06 a les 12 UTC
Vent 8 kt del Est
Visibilitat 10 km o més
Núvols disperses a una alçada de 2400 ft
Probabilitat 30% :
Temporalment
l' 06 a les 09 UTC al 06 a les 12 UTC
Visibilitat: 5000 m
Cel ennuvolat a una alçada de 1500 ft
xàfecs de pluja

TAF: MZBZ 051100Z 0512/0612 09008KT 9999 SCT024 PROB30 TEMPO 0609/0612 5000 SHRA BKN015

Observacions i pronòstics meteorològics de més de 4000 aeroports (METAR i TAF).

Les estacions disponibles són els punts grocs i vermells al mapa.

Posi el ratolí al punt desitjat per veure el nom de l'estació.

Feu clic per veure les observacions i els pronòstics meteorològics.

Per canviar el mapa: feu clic els botons verds amb una creu de color negre per apropar; al botó verd amb un guió per allunyar la imatge; o en les fletxes verdes per a mapes adjacents.


METAR-TAF: